Time;durP1;ratioP1;P1;durP2;ratioP2;P2;SDS_P1;SDS_P2;PMS_P1;PMS_P2;Temp;Humidity;BMP_temperature;BMP_pressure;BME280_temperature;BME280_humidity;BME280_pressure;Samples;Min_cycle;Max_cycle;Signal;HPM_P1;HPM_P2
2021/01/25 00:00:49;;;;;;;26.27;13.17;;;;;;;0.60;100.00;98622.00;10539565;28;20171;-57
2021/01/25 00:05:50;;;;;;;28.03;14.37;;;;;;;0.55;100.00;98637.97;10538791;28;20245;-57
2021/01/25 00:10:50;;;;;;;28.53;14.37;;;;;;;0.52;100.00;98634.63;10538955;28;20185;-58
2021/01/25 00:15:51;;;;;;;30.83;14.63;;;;;;;0.50;100.00;98634.72;10537179;28;20242;-57
2021/01/25 00:20:51;;;;;;;28.53;14.37;;;;;;;0.44;100.00;98631.56;10538819;28;20253;-58
2021/01/25 00:25:52;;;;;;;28.97;14.73;;;;;;;0.50;100.00;98634.72;10538085;28;20635;-58
2021/01/25 00:30:52;;;;;;;27.80;13.67;;;;;;;0.61;100.00;98649.91;10537825;28;20210;-57
2021/01/25 00:35:53;;;;;;;26.70;13.83;;;;;;;0.73;100.00;98649.28;10537514;28;20198;-58
2021/01/25 00:40:53;;;;;;;25.97;13.43;;;;;;;0.79;100.00;98646.34;10538050;28;20170;-58
2021/01/25 00:45:53;;;;;;;26.53;13.80;;;;;;;0.87;100.00;98654.69;10537875;28;20571;-58
2021/01/25 00:50:54;;;;;;;28.50;14.33;;;;;;;0.91;100.00;98650.13;10537751;28;20632;-57
2021/01/25 00:55:56;;;;;;;23.77;13.70;;;;;;;0.95;100.00;98642.03;10537374;28;20205;-57
2021/01/25 01:00:56;;;;;;;23.77;12.93;;;;;;;1.00;100.00;98647.00;10537239;28;20304;-57
2021/01/25 01:05:57;;;;;;;27.23;14.20;;;;;;;1.04;100.00;98657.28;10536996;28;20592;-56
2021/01/25 01:10:57;;;;;;;23.37;13.87;;;;;;;1.09;100.00;98670.16;10536513;28;20256;-58
2021/01/25 01:15:58;;;;;;;24.00;13.10;;;;;;;1.13;100.00;98662.97;10535819;28;20226;-57
2021/01/25 01:20:58;;;;;;;24.53;13.07;;;;;;;1.17;100.00;98673.25;10535611;28;20253;-57
2021/01/25 01:25:58;;;;;;;23.00;12.43;;;;;;;1.21;100.00;98673.97;10536425;28;20194;-58
2021/01/25 01:30:59;;;;;;;24.57;13.23;;;;;;;1.25;100.00;98678.09;10535359;28;20512;-57
2021/01/25 01:35:59;;;;;;;24.47;12.97;;;;;;;1.28;100.00;98672.69;10535586;28;20202;-58
2021/01/25 01:41:00;;;;;;;25.90;12.97;;;;;;;1.31;100.00;98670.75;10536138;28;20171;-58
2021/01/25 01:46:00;;;;;;;25.50;12.90;;;;;;;1.32;100.00;98676.88;10536117;28;20216;-58
2021/01/25 01:51:01;;;;;;;20.27;11.57;;;;;;;1.38;100.00;98681.78;10535334;28;20552;-57
2021/01/25 01:56:01;;;;;;;21.90;11.93;;;;;;;1.39;100.00;98676.44;10535173;28;20301;-57
2021/01/25 02:01:02;;;;;;;25.77;12.50;;;;;;;1.40;100.00;98674.66;10535234;28;20182;-56
2021/01/25 02:06:05;;;;;;;20.57;10.57;;;;;;;1.40;99.68;98664.16;10535299;28;20194;-58
2021/01/25 02:11:06;;;;;;;24.43;12.23;;;;;;;1.42;100.00;98678.06;10535800;28;20189;-58
2021/01/25 02:16:06;;;;;;;21.77;11.23;;;;;;;1.42;100.00;98676.28;10533693;28;20691;-57
2021/01/25 02:21:14;;;;;;;25.07;11.80;;;;;;;1.47;99.26;98685.69;10534696;28;20265;-57
2021/01/25 02:26:34;;;;;;;23.20;12.53;;;;;;;1.51;99.08;98682.81;10533782;28;20647;-57
2021/01/25 02:31:36;;;;;;;18.57;10.37;;;;;;;1.53;99.84;98688.84;10535492;28;20182;-57
2021/01/25 02:36:37;;;;;;;22.10;11.43;;;;;;;1.52;99.44;98688.94;10534647;28;20300;-56
2021/01/25 02:41:39;;;;;;;19.07;10.60;;;;;;;1.50;98.97;98696.88;10539520;28;20180;-57
2021/01/25 02:46:40;;;;;;;20.20;11.43;;;;;;;1.52;99.19;98695.03;10541935;28;20178;-57
2021/01/25 02:51:40;;;;;;;19.10;10.73;;;;;;;1.55;99.32;98700.13;10542254;28;20166;-56
2021/01/25 02:56:41;;;;;;;20.93;11.30;;;;;;;1.53;98.93;98694.09;10541985;28;20202;-57
2021/01/25 03:01:44;;;;;;;20.87;11.30;;;;;;;1.53;99.52;98688.84;10541982;28;20178;-57
2021/01/25 03:06:45;;;;;;;19.83;11.23;;;;;;;1.54;99.04;98693.19;10540438;28;20166;-56
2021/01/25 03:11:46;;;;;;;25.97;11.20;;;;;;;1.55;99.32;98694.88;10540264;28;20319;-57
2021/01/25 03:16:46;;;;;;;18.83;11.57;;;;;;;1.56;98.90;98696.59;10540893;28;20597;-55
2021/01/25 03:21:54;;;;;;;22.10;10.80;;;;;;;1.56;99.05;98696.59;10540519;28;20170;-55
2021/01/25 03:26:54;;;;;;;19.40;10.87;;;;;;;1.56;99.03;98699.22;10540357;28;20669;-56
2021/01/25 03:31:55;;;;;;;22.03;11.07;;;;;;;1.56;99.35;98701.84;10540707;28;20185;-56
2021/01/25 03:36:55;;;;;;;16.23;10.83;;;;;;;1.55;98.72;98705.41;10539892;28;20305;-56
2021/01/25 03:41:56;;;;;;;17.60;10.57;;;;;;;1.54;99.03;98714.22;10539831;28;20184;-56
2021/01/25 03:46:56;;;;;;;19.33;10.70;;;;;;;1.50;99.50;98712.66;10539372;28;20228;-56
2021/01/25 03:51:57;;;;;;;19.50;10.07;;;;;;;1.49;99.15;98700.44;10539071;28;20177;-55
2021/01/25 03:56:57;;;;;;;19.63;10.47;;;;;;;1.49;99.20;98713.59;10537769;28;20203;-56
2021/01/25 04:01:58;;;;;;;16.27;10.27;;;;;;;1.53;99.33;98717.75;10539587;28;20228;-56
2021/01/25 04:06:58;;;;;;;18.23;11.60;;;;;;;1.52;99.57;98721.31;10539370;28;20663;-55
2021/01/25 04:11:59;;;;;;;17.10;12.10;;;;;;;1.56;98.46;98733.38;10539175;28;20477;-56
2021/01/25 04:16:59;;;;;;;17.80;10.83;;;;;;;1.56;98.64;98741.25;10538354;28;20686;-56
2021/01/25 04:22:00;;;;;;;15.73;10.27;;;;;;;1.55;99.17;98747.44;10537893;28;20177;-55
2021/01/25 04:27:01;;;;;;;17.97;10.30;;;;;;;1.30;98.92;98710.25;10538603;28;20232;-57
2021/01/25 04:32:01;;;;;;;19.27;10.30;;;;;;;1.56;98.35;98754.41;10538283;28;20181;-57
2021/01/25 04:37:02;;;;;;;19.60;10.40;;;;;;;1.57;98.43;98750.00;10538065;28;20198;-57
2021/01/25 04:42:04;;;;;;;18.40;9.90;;;;;;;1.52;98.75;98736.25;10537331;28;20175;-57
2021/01/25 04:47:05;;;;;;;19.07;10.77;;;;;;;1.57;99.40;98742.94;10537251;28;20163;-58
2021/01/25 04:52:06;;;;;;;24.23;12.97;;;;;;;1.54;98.61;98740.50;10537394;28;20171;-57
2021/01/25 04:57:08;;;;;;;25.47;12.27;;;;;;;1.55;98.48;98747.44;10536306;28;20202;-57
2021/01/25 05:02:09;;;;;;;27.47;15.07;;;;;;;1.54;98.57;98748.38;10535056;28;20235;-56
2021/01/25 05:07:10;;;;;;;26.03;14.17;;;;;;;1.51;99.33;98751.16;10536585;28;20246;-59
2021/01/25 05:12:10;;;;;;;23.10;13.30;;;;;;;1.48;98.47;98747.84;10536540;28;20315;-58
2021/01/25 05:17:12;;;;;;;23.47;13.27;;;;;;;1.47;98.45;98746.97;10536080;28;20241;-56
2021/01/25 05:22:19;;;;;;;24.90;13.83;;;;;;;1.45;99.06;98754.09;10536116;28;20523;-57
2021/01/25 05:27:26;;;;;;;19.40;10.93;;;;;;;1.42;98.63;98759.53;10536094;28;20183;-56
2021/01/25 05:32:27;;;;;;;17.97;10.70;;;;;;;1.44;99.17;98765.56;10536424;28;20177;-58
2021/01/25 05:37:27;;;;;;;16.90;10.37;;;;;;;1.44;98.89;98757.69;10534963;28;20202;-57
2021/01/25 05:42:35;;;;;;;21.30;11.67;;;;;;;1.44;99.02;98766.41;10535315;28;20277;-58
2021/01/25 05:47:53;;;;;;;19.23;10.63;;;;;;;1.47;98.87;98770.63;10535720;28;20175;-57
2021/01/25 05:52:54;;;;;;;17.17;9.90;;;;;;;1.48;99.07;98764.44;10536082;28;20182;-58
2021/01/25 05:57:54;;;;;;;18.17;11.00;;;;;;;1.49;98.57;98763.53;10536218;28;20218;-58
2021/01/25 06:02:56;;;;;;;33.70;14.73;;;;;;;1.46;99.13;98758.41;10536013;28;20182;-58
2021/01/25 06:08:25;;;;;;;36.13;14.93;;;;;;;1.47;98.70;98765.38;10536087;28;20206;-58
2021/01/25 06:13:31;;;;;;;25.07;12.83;;;;;;;1.49;98.73;98768.78;10534280;28;20234;-56
2021/01/25 06:18:32;;;;;;;24.47;11.93;;;;;;;1.49;98.58;98771.41;10541870;28;20241;-58
2021/01/25 06:23:33;;;;;;;22.57;12.57;;;;;;;1.49;99.58;98768.78;10542313;28;20193;-55
2021/01/25 06:28:34;;;;;;;28.10;15.70;;;;;;;1.51;98.68;98772.19;10527547;27;20182;-58
2021/01/25 06:33:38;;;;;;;24.23;13.60;;;;;;;1.55;99.02;98776.38;10533297;28;20236;-57
2021/01/25 06:38:40;;;;;;;21.03;12.17;;;;;;;1.52;98.69;98771.25;10523047;28;21059;-59
2021/01/25 06:43:44;;;;;;;21.67;12.07;;;;;;;1.56;98.55;98782.47;10550539;28;20193;-59
2021/01/25 06:48:48;;;;;;;20.23;12.20;;;;;;;1.33;98.76;98741.59;10537704;28;20616;-60
2021/01/25 06:53:49;;;;;;;20.13;11.77;;;;;;;1.60;98.76;98790.09;10532797;28;20197;-57
2021/01/25 06:58:50;;;;;;;29.93;13.97;;;;;;;1.57;98.46;98798.13;10525192;28;20563;-62
2021/01/25 07:03:53;;;;;;;23.97;12.53;;;;;;;1.48;99.12;98798.63;10529613;28;20215;-61
2021/01/25 07:08:57;;;;;;;27.07;14.47;;;;;;;1.48;99.36;98805.66;10519711;28;20182;-55
2021/01/25 07:13:58;;;;;;;35.17;16.20;;;;;;;1.53;98.93;98816.78;10546018;28;20188;-56
2021/01/25 07:19:00;;;;;;;37.73;17.10;;;;;;;1.55;98.56;98810.53;10514692;28;20234;-57
2021/01/25 07:24:02;;;;;;;30.07;13.73;;;;;;;1.55;98.91;98807.91;10537308;28;20185;-55
2021/01/25 07:29:09;;;;;;;20.53;11.27;;;;;;;1.53;98.85;98804.50;10525801;28;20201;-60
2021/01/25 07:34:11;;;;;;;20.77;12.43;;;;;;;1.51;99.52;98803.72;10528943;28;20182;-59
2021/01/25 07:39:16;;;;;;;22.17;12.70;;;;;;;1.48;98.99;98798.63;10532205;28;20229;-55
2021/01/25 07:44:17;;;;;;;19.40;11.17;;;;;;;1.39;99.71;98806.97;10524827;28;20193;-58
2021/01/25 07:49:27;;;;;;;20.97;11.97;;;;;;;1.31;100.00;98807.38;10541853;28;20740;-60
2021/01/25 07:54:31;;;;;;;24.27;13.80;;;;;;;1.26;100.00;98804.13;10535759;28;20211;-59
2021/01/25 07:59:35;;;;;;;28.17;14.70;;;;;;;1.17;100.00;98803.75;10525120;28;20297;-58
2021/01/25 08:04:40;;;;;;;29.27;13.50;;;;;;;1.16;100.00;98810.78;10520526;28;20220;-60
2021/01/25 08:09:43;;;;;;;23.20;13.03;;;;;;;1.14;100.00;98820.50;10532686;28;20185;-60
2021/01/25 08:14:59;;;;;;;25.60;13.97;;;;;;;1.14;100.00;98819.66;10521578;28;20952;-59
2021/01/25 08:20:08;;;;;;;30.00;15.50;;;;;;;1.12;100.00;98821.50;10521131;28;20181;-55
2021/01/25 08:25:16;;;;;;;31.67;16.33;;;;;;;1.12;100.00;98826.75;10522494;28;20185;-57
2021/01/25 08:30:22;;;;;;;29.63;14.13;;;;;;;1.06;100.00;98815.66;10517795;28;20858;-57
2021/01/25 08:35:29;;;;;;;30.30;14.20;;;;;;;1.09;100.00;98822.50;10522705;28;20209;-57
2021/01/25 08:40:34;;;;;;;30.23;13.97;;;;;;;1.08;100.00;98815.56;10531249;28;20240;-56
2021/01/25 08:45:35;;;;;;;50.20;20.70;;;;;;;1.10;100.00;98818.94;10522984;28;20869;-58
2021/01/25 08:50:37;;;;;;;37.28;23.17;;;;;;;1.13;100.00;98823.22;10495154;28;20423;-57
2021/01/25 08:55:47;;;;;;;37.17;22.63;;;;;;;1.29;100.00;98822.38;10513063;28;21013;-56
2021/01/25 09:00:48;;;;;;;32.87;17.67;;;;;;;1.28;100.00;98838.22;10521488;28;20737;-57
2021/01/25 09:05:53;;;;;;;20.53;11.43;;;;;;;1.27;99.34;98826.00;10509144;28;20194;-59
2021/01/25 09:10:56;;;;;;;25.63;12.90;;;;;;;1.30;98.78;98825.84;10518728;28;20196;-56
2021/01/25 09:15:57;;;;;;;23.23;11.20;;;;;;;1.31;98.07;98830.19;10531029;28;20321;-55
2021/01/25 09:20:58;;;;;;;20.73;11.47;;;;;;;1.30;97.70;98841.63;10528956;28;20167;-55
2021/01/25 09:25:58;;;;;;;35.33;17.30;;;;;;;1.31;98.28;98848.56;10531120;28;20590;-55
2021/01/25 09:30:59;;;;;;;20.90;11.30;;;;;;;1.33;98.23;98851.94;10541695;28;20665;-54
2021/01/25 09:36:00;;;;;;;19.43;10.77;;;;;;;1.37;98.55;98846.47;10514390;28;20838;-54
2021/01/25 09:41:00;;;;;;;53.40;22.17;;;;;;;1.38;98.57;98850.81;10538467;28;20174;-54
2021/01/25 09:46:01;;;;;;;17.80;11.13;;;;;;;1.41;98.27;98853.28;10529041;28;20234;-54
2021/01/25 09:51:01;;;;;;;20.57;11.37;;;;;;;1.47;98.32;98846.84;10540158;28;20293;-55
2021/01/25 09:56:02;;;;;;;20.17;11.77;;;;;;;1.59;98.10;98848.00;10532405;28;20197;-55
2021/01/25 10:01:04;;;;;;;22.63;11.97;;;;;;;1.64;97.04;98843.38;10529808;28;20182;-56
2021/01/25 10:06:04;;;;;;;24.43;14.33;;;;;;;1.60;96.31;98850.56;10536235;28;20186;-57
2021/01/25 10:11:06;;;;;;;23.83;12.97;;;;;;;1.59;97.00;98850.63;10543595;28;21009;-54
2021/01/25 10:16:06;;;;;;;21.93;11.97;;;;;;;1.52;96.69;98847.47;10534422;28;20324;-57
2021/01/25 10:21:07;;;;;;;16.63;10.07;;;;;;;1.44;97.03;98823.38;10533240;28;20166;-57
2021/01/25 10:26:08;;;;;;;20.93;10.93;;;;;;;1.35;96.94;98826.44;10536948;28;20229;-56
2021/01/25 10:31:08;;;;;;;20.47;10.37;;;;;;;1.32;97.93;98831.88;10551312;28;20186;-55
2021/01/25 10:36:09;;;;;;;19.07;11.17;;;;;;;1.31;99.26;98830.19;10521109;28;20214;-55
2021/01/25 10:41:10;;;;;;;20.87;10.30;;;;;;;1.34;98.29;98832.63;10552151;28;20217;-56
2021/01/25 10:46:12;;;;;;;21.90;12.63;;;;;;;1.36;99.08;98825.53;10538927;28;20758;-56
2021/01/25 10:51:12;;;;;;;23.50;11.23;;;;;;;1.33;98.92;98825.66;10519151;28;20193;-58
2021/01/25 10:56:13;;;;;;;20.10;10.73;;;;;;;1.37;99.01;98828.09;10517749;28;20217;-55
2021/01/25 11:01:14;;;;;;;19.57;9.70;;;;;;;1.31;98.02;98832.81;10531663;28;20187;-57
2021/01/25 11:06:16;;;;;;;23.13;12.17;;;;;;;1.31;99.04;98827.56;10532342;28;20599;-56
2021/01/25 11:11:16;;;;;;;21.60;11.10;;;;;;;1.33;99.59;98830.94;10542725;28;20679;-56
2021/01/25 11:16:17;;;;;;;21.53;11.70;;;;;;;1.28;99.40;98822.44;10513462;28;20237;-58
2021/01/25 11:21:17;;;;;;;27.37;13.27;;;;;;;1.24;99.52;98824.38;10528250;28;20197;-57
2021/01/25 11:26:20;;;;;;;20.00;10.90;;;;;;;1.22;99.77;98818.34;10511150;28;20332;-58
2021/01/25 11:31:21;;;;;;;28.50;13.67;;;;;;;1.20;99.84;98822.00;10530919;28;20273;-56
2021/01/25 11:36:21;;;;;;;24.90;11.97;;;;;;;1.14;100.00;98817.03;10523583;28;20656;-56
2021/01/25 11:41:22;;;;;;;20.03;10.07;;;;;;;1.09;100.00;98806.75;10515467;28;20218;-57
2021/01/25 11:46:22;;;;;;;20.67;10.47;;;;;;;1.12;100.00;98811.00;10510629;28;20186;-59
2021/01/25 11:51:23;;;;;;;19.43;9.80;;;;;;;1.14;100.00;98811.78;10530520;28;20899;-56
2021/01/25 11:56:24;;;;;;;20.07;11.77;;;;;;;1.15;100.00;98816.97;10533349;28;20759;-58
2021/01/25 12:01:25;;;;;;;17.10;10.03;;;;;;;1.14;100.00;98815.25;10527713;28;20253;-57
2021/01/25 12:06:25;;;;;;;19.97;10.80;;;;;;;1.09;100.00;98794.47;10527735;28;20615;-57
2021/01/25 12:11:27;;;;;;;19.53;10.93;;;;;;;1.16;100.00;98807.31;10535011;28;20788;-56
2021/01/25 12:16:27;;;;;;;21.10;11.53;;;;;;;0.85;100.00;98758.94;10530443;28;20708;-59
2021/01/25 12:21:28;;;;;;;21.03;11.33;;;;;;;1.06;100.00;98801.66;10529314;28;20247;-58
2021/01/25 12:26:29;;;;;;;22.07;11.90;;;;;;;0.98;100.00;98804.66;10524891;28;20174;-59
2021/01/25 12:31:30;;;;;;;22.53;12.30;;;;;;;0.96;100.00;98795.19;10532724;28;20190;-62
2021/01/25 12:36:37;;;;;;;17.53;10.27;;;;;;;0.96;100.00;98796.03;10526267;28;20284;-58
2021/01/25 12:41:45;;;;;;;24.33;12.03;;;;;;;1.00;100.00;98788.81;10452315;28;20293;-60
2021/01/25 12:46:49;;;;;;;19.40;11.33;;;;;;;1.05;100.00;98794.72;10420071;28;20379;-55
2021/01/25 12:51:50;;;;;;;25.67;12.00;;;;;;;1.06;100.00;98781.50;10424911;28;20183;-58
2021/01/25 12:56:51;;;;;;;20.83;10.83;;;;;;;1.06;100.00;98801.66;10421080;28;20767;-54
2021/01/25 13:01:52;;;;;;;19.07;10.70;;;;;;;1.06;100.00;98810.41;10424538;28;20315;-54
2021/01/25 13:06:52;;;;;;;23.17;11.50;;;;;;;1.04;100.00;98809.63;10420645;28;20184;-55
2021/01/25 13:11:53;;;;;;;24.87;11.43;;;;;;;1.02;100.00;98811.47;10425605;28;20205;-55
2021/01/25 13:16:53;;;;;;;17.77;9.23;;;;;;;1.02;100.00;98815.88;10401901;28;20990;-55
2021/01/25 13:21:54;;;;;;;27.60;16.15;;;;;;;1.12;100.00;98811.84;10422438;28;20431;-56
2021/01/25 13:26:54;;;;;;;20.47;10.37;;;;;;;1.07;100.00;98824.38;10388839;28;20230;-55
2021/01/25 13:31:54;;;;;;;23.30;10.10;;;;;;;1.07;100.00;98840.16;10413423;28;20190;-56
2021/01/25 13:36:55;;;;;;;21.83;9.43;;;;;;;0.98;100.00;98833.53;10411809;28;20215;-56
2021/01/25 13:41:55;;;;;;;16.63;8.77;;;;;;;0.97;100.00;98829.22;10424288;28;20190;-56
2021/01/25 13:46:56;;;;;;;17.40;9.27;;;;;;;0.96;100.00;98842.44;10419566;28;20172;-55
2021/01/25 13:51:56;;;;;;;25.60;9.43;;;;;;;0.95;100.00;98835.50;10422792;28;20549;-56
2021/01/25 13:56:57;;;;;;;20.17;10.87;;;;;;;0.92;100.00;98841.75;10420780;28;20210;-62
2021/01/25 14:01:57;;;;;;;25.00;12.20;;;;;;;0.92;100.00;98847.00;10415651;28;20253;-60
2021/01/25 14:06:59;;;;;;;22.13;10.37;;;;;;;0.93;100.00;98859.19;10421839;28;20257;-58
2021/01/25 14:11:59;;;;;;;21.47;10.77;;;;;;;0.98;100.00;98872.94;10426902;28;20535;-65
2021/01/25 14:17:03;;;;;;;30.30;14.50;;;;;;;0.98;100.00;98872.94;10418091;28;20231;-64
2021/01/25 14:22:03;;;;;;;18.03;9.80;;;;;;;1.01;100.00;98883.31;10424761;28;20656;-65
2021/01/25 14:27:05;;;;;;;23.67;12.40;;;;;;;1.02;100.00;98885.00;10420991;28;20191;-59
2021/01/25 14:32:07;;;;;;;22.23;10.87;;;;;;;1.02;100.00;98897.28;10424938;28;20601;-60
2021/01/25 14:37:09;;;;;;;27.73;11.23;;;;;;;1.01;100.00;98909.56;10424045;28;20250;-65
2021/01/25 14:42:09;;;;;;;24.53;10.57;;;;;;;1.02;100.00;98910.41;10412370;28;20199;-59
2021/01/25 14:47:10;;;;;;;19.93;10.13;;;;;;;0.99;100.00;98919.28;10424538;28;20195;-61
2021/01/25 14:52:10;;;;;;;18.73;9.03;;;;;;;0.94;100.00;98923.94;10432524;28;20651;-62
2021/01/25 14:57:11;;;;;;;12.73;7.10;;;;;;;0.92;100.00;98924.91;10428157;28;20203;-59
2021/01/25 15:02:11;;;;;;;15.93;7.77;;;;;;;0.87;100.00;98938.25;10430899;28;20191;-62
2021/01/25 15:07:12;;;;;;;12.33;7.23;;;;;;;0.84;100.00;98930.53;10424953;28;20176;-56
2021/01/25 15:12:12;;;;;;;13.40;7.57;;;;;;;0.83;100.00;98931.47;10430636;28;20195;-62
2021/01/25 15:17:13;;;;;;;11.50;6.57;;;;;;;0.83;100.00;98941.97;10426456;28;20247;-63
2021/01/25 15:22:13;;;;;;;10.40;7.40;;;;;;;0.80;100.00;98943.88;10418921;28;20191;-59
2021/01/25 15:27:14;;;;;;;11.10;6.47;;;;;;;0.75;100.00;98949.31;10424086;28;20195;-60
2021/01/25 15:32:14;;;;;;;12.27;6.23;;;;;;;0.69;100.00;98944.38;10421549;28;21166;-62
2021/01/25 15:37:15;;;;;;;8.47;5.93;;;;;;;0.62;100.00;98953.44;10424530;28;20218;-59
2021/01/25 15:42:15;;;;;;;14.20;7.93;;;;;;;0.61;100.00;98975.34;10426885;28;20187;-59
2021/01/25 15:47:16;;;;;;;9.20;6.77;;;;;;;0.58;100.00;98979.00;10424141;28;20192;-57
2021/01/25 15:52:18;;;;;;;11.47;7.53;;;;;;;0.52;100.00;98968.75;10427674;28;20179;-56
2021/01/25 15:57:19;;;;;;;12.20;6.83;;;;;;;0.50;100.00;98980.22;10425633;28;20757;-62
2021/01/25 16:02:19;;;;;;;13.20;7.57;;;;;;;0.48;100.00;98982.09;10426901;28;20234;-56
2021/01/25 16:07:20;;;;;;;12.93;7.13;;;;;;;0.48;100.00;99000.47;10405545;28;20276;-63
2021/01/25 16:12:21;;;;;;;11.47;6.43;;;;;;;0.47;100.00;98993.50;10426781;28;20168;-54
2021/01/25 16:17:22;;;;;;;7.80;5.70;;;;;;;0.36;100.00;98983.50;10421228;28;20236;-54
2021/01/25 16:22:22;;;;;;;10.57;7.13;;;;;;;0.49;100.00;99005.63;10423994;28;20192;-54
2021/01/25 16:27:23;;;;;;;8.73;5.80;;;;;;;0.50;100.00;99003.84;10322191;28;20397;-56
2021/01/25 16:32:23;;;;;;;15.97;9.90;;;;;;;0.47;100.00;98991.75;10449430;28;20222;-53
2021/01/25 16:37:24;;;;;;;7.30;5.10;;;;;;;0.50;100.00;98995.97;10462482;28;20235;-59
2021/01/25 16:42:25;;;;;;;9.47;5.20;;;;;;;0.50;100.00;98988.09;10451971;28;20180;-58
2021/01/25 16:47:26;;;;;;;7.13;4.23;;;;;;;0.49;100.00;99004.78;10452641;28;20633;-58
2021/01/25 16:52:26;;;;;;;7.77;4.43;;;;;;;0.47;100.00;98997.00;10436072;28;20179;-65
2021/01/25 16:57:27;;;;;;;8.37;4.30;;;;;;;0.50;100.00;99009.09;10493337;28;20199;-61
2021/01/25 17:02:28;;;;;;;6.00;4.33;;;;;;;0.51;100.00;99010.81;10493546;28;20171;-64
2021/01/25 17:07:28;;;;;;;8.23;4.47;;;;;;;0.55;99.70;99023.75;10493353;28;20190;-54
2021/01/25 17:12:29;;;;;;;10.33;4.03;;;;;;;0.57;99.39;99018.41;10487010;28;20538;-66
2021/01/25 17:17:29;;;;;;;8.37;4.23;;;;;;;0.57;99.78;99018.41;10439279;28;20950;-56
2021/01/25 17:22:31;;;;;;;12.60;5.10;;;;;;;0.53;100.00;99022.09;10443391;28;20697;-63
2021/01/25 17:27:31;;;;;;;10.70;5.33;;;;;;;0.56;100.00;99027.22;10409715;28;20211;-69
2021/01/25 17:32:31;;;;;;;8.47;5.73;;;;;;;0.54;100.00;99034.28;10409407;28;20190;-55
2021/01/25 17:37:32;;;;;;;8.07;5.07;;;;;;;0.52;100.00;99038.75;10409651;28;20216;-67
2021/01/25 17:42:32;;;;;;;10.33;5.83;;;;;;;0.53;100.00;99037.84;10409427;28;20247;-60
2021/01/25 17:47:33;;;;;;;8.20;5.10;;;;;;;0.53;100.00;99043.09;10432765;28;20188;-59
2021/01/25 17:52:33;;;;;;;9.83;6.37;;;;;;;0.54;100.00;99040.41;10447999;28;20180;-59
2021/01/25 17:57:34;;;;;;;10.90;6.83;;;;;;;0.58;100.00;99046.38;10488564;28;20540;-57
2021/01/25 18:02:34;;;;;;;6.73;3.67;;;;;;;0.58;99.95;99041.13;10483429;28;20538;-59
2021/01/25 18:07:35;;;;;;;8.43;5.60;;;;;;;0.58;100.00;99051.63;10490006;28;20213;-56
2021/01/25 18:12:36;;;;;;;9.57;4.50;;;;;;;0.57;100.00;99040.28;10499189;28;20649;-56
2021/01/25 18:17:38;;;;;;;8.73;5.60;;;;;;;0.57;100.00;99035.03;10468109;28;20243;-53
2021/01/25 18:22:39;;;;;;;6.70;4.03;;;;;;;0.59;100.00;99048.94;10455937;28;20648;-56
2021/01/25 18:27:40;;;;;;;8.90;4.60;;;;;;;0.56;100.00;99058.72;10457445;28;20598;-56
2021/01/25 18:32:41;;;;;;;6.17;4.47;;;;;;;0.56;100.00;99053.47;10455454;28;20187;-54
2021/01/25 18:37:41;;;;;;;10.60;6.27;;;;;;;0.54;100.00;99045.66;10454186;28;20199;-55
2021/01/25 18:42:41;;;;;;;9.83;6.10;;;;;;;0.53;100.00;99043.94;10457238;28;20643;-55
2021/01/25 18:47:42;;;;;;;11.60;7.23;;;;;;;0.56;100.00;99066.56;10429406;28;20633;-56
2021/01/25 18:52:42;;;;;;;12.73;7.50;;;;;;;0.52;100.00;99046.63;10416009;28;20180;-54
2021/01/25 18:57:44;;;;;;;13.60;7.60;;;;;;;0.53;100.00;99056.22;10456005;28;20207;-55
2021/01/25 19:02:44;;;;;;;8.87;5.60;;;;;;;0.54;100.00;99063.16;10457247;28;20251;-55
2021/01/25 19:07:45;;;;;;;7.83;5.63;;;;;;;0.54;100.00;99065.78;10454756;28;20176;-55
2021/01/25 19:12:46;;;;;;;14.43;8.27;;;;;;;0.55;100.00;99067.50;10455663;28;20621;-55
2021/01/25 19:17:48;;;;;;;17.13;7.43;;;;;;;0.54;100.00;99068.41;10482106;28;20692;-54
2021/01/25 19:22:49;;;;;;;8.77;5.37;;;;;;;0.57;99.76;99077.00;10497198;28;20183;-55
2021/01/25 19:27:50;;;;;;;12.97;7.27;;;;;;;0.60;99.75;99087.38;10497298;28;20183;-55
2021/01/25 19:32:52;;;;;;;14.33;7.70;;;;;;;0.60;98.50;99103.13;10497220;28;20175;-55
2021/01/25 19:37:53;;;;;;;14.03;7.53;;;;;;;0.60;99.31;99100.50;10496355;28;20710;-55
2021/01/25 19:42:54;;;;;;;9.03;5.93;;;;;;;0.59;99.46;99105.81;10496365;28;20256;-56
2021/01/25 19:47:55;;;;;;;11.60;5.60;;;;;;;0.57;98.52;99095.38;10468227;28;20237;-55
2021/01/25 19:52:56;;;;;;;13.77;7.77;;;;;;;0.56;98.14;99098.06;10458061;28;20187;-55
2021/01/25 19:57:57;;;;;;;12.33;7.70;;;;;;;0.60;97.75;99099.66;10495312;28;20191;-56
2021/01/25 20:02:57;;;;;;;10.17;6.30;;;;;;;0.59;97.62;99100.56;10495354;28;20179;-55
2021/01/25 20:08:00;;;;;;;10.77;6.63;;;;;;;0.61;97.47;99103.97;10495752;28;20175;-54
2021/01/25 20:13:01;;;;;;;12.63;7.37;;;;;;;0.62;97.39;99121.41;10494196;28;20906;-54
2021/01/25 20:18:03;;;;;;;13.03;6.90;;;;;;;0.59;96.94;99111.06;10494206;28;20223;-55
2021/01/25 20:23:13;;;;;;;12.90;7.27;;;;;;;0.60;96.73;99123.28;10494424;28;20198;-55
2021/01/25 20:28:19;;;;;;;10.93;6.73;;;;;;;0.57;96.52;99115.53;10447892;28;20237;-54
2021/01/25 20:33:24;;;;;;;9.03;5.23;;;;;;;0.57;98.09;99118.16;10398286;28;20275;-54
2021/01/25 20:38:24;;;;;;;12.80;6.67;;;;;;;0.53;98.47;99119.19;10452547;28;20215;-54
2021/01/25 20:43:25;;;;;;;9.90;6.03;;;;;;;0.50;98.86;99117.53;10434487;28;20179;-54
2021/01/25 20:48:26;;;;;;;14.53;7.27;;;;;;;0.46;100.00;99129.13;10453515;28;20194;-52
2021/01/25 20:53:28;;;;;;;11.70;5.93;;;;;;;0.46;100.00;99130.88;10459999;28;20176;-53
2021/01/25 20:58:28;;;;;;;12.70;7.30;;;;;;;0.44;100.00;99123.06;10493163;28;20219;-54
2021/01/25 21:03:31;;;;;;;8.73;5.57;;;;;;;0.41;100.00;99117.09;10493713;28;20183;-53
2021/01/25 21:08:31;;;;;;;12.63;7.63;;;;;;;0.43;100.00;99125.75;10440908;28;20631;-53
2021/01/25 21:13:32;;;;;;;10.77;6.90;;;;;;;0.43;100.00;99133.63;10452051;28;20275;-58
2021/01/25 21:18:38;;;;;;;13.97;8.13;;;;;;;0.42;100.00;99145.03;10451243;28;20234;-53
2021/01/25 21:23:38;;;;;;;14.40;8.50;;;;;;;0.40;99.92;99141.63;10451058;28;20187;-54
2021/01/25 21:28:41;;;;;;;16.50;7.37;;;;;;;0.38;100.00;99154.81;10451668;28;20171;-54
2021/01/25 21:33:43;;;;;;;13.53;7.80;;;;;;;0.36;100.00;99157.47;10451145;28;20696;-54
2021/01/25 21:38:45;;;;;;;11.70;6.33;;;;;;;0.35;99.58;99161.06;10444511;28;20246;-53
2021/01/25 21:43:45;;;;;;;8.83;5.83;;;;;;;0.35;98.84;99173.31;10442141;28;20190;-54
2021/01/25 21:48:50;;;;;;;11.30;6.80;;;;;;;0.35;99.26;99171.56;10452300;28;20531;-55
2021/01/25 21:53:51;;;;;;;7.90;4.53;;;;;;;0.33;98.98;99178.63;10413703;28;20744;-55
2021/01/25 21:58:51;;;;;;;6.40;4.80;;;;;;;0.32;99.15;99179.53;10435068;28;20277;-55
2021/01/25 22:03:52;;;;;;;9.07;6.70;;;;;;;0.31;98.04;99175.19;10455371;28;20191;-52
2021/01/25 22:08:52;;;;;;;6.77;5.60;;;;;;;0.33;96.86;99186.50;10455270;28;20540;-54
2021/01/25 22:13:53;;;;;;;5.27;2.97;;;;;;;0.35;95.97;99181.19;10455000;28;20200;-52
2021/01/25 22:18:53;;;;;;;7.90;4.97;;;;;;;0.34;95.13;99193.44;10436723;28;20244;-54
2021/01/25 22:23:54;;;;;;;5.97;4.03;;;;;;;0.38;93.84;99191.53;10436926;28;20196;-53
2021/01/25 22:28:54;;;;;;;10.07;5.50;;;;;;;0.39;93.23;99192.38;10453218;28;20242;-53
2021/01/25 22:33:55;;;;;;;6.23;4.33;;;;;;;0.36;91.55;99175.84;10454993;28;20180;-54
2021/01/25 22:38:55;;;;;;;5.80;3.53;;;;;;;0.38;92.40;99196.78;10454271;28;20617;-54
2021/01/25 22:43:56;;;;;;;4.33;3.90;;;;;;;0.38;91.72;99199.41;10453977;28;20172;-56
2021/01/25 22:48:56;;;;;;;6.07;3.90;;;;;;;0.42;89.70;99192.28;10452066;28;20188;-54
2021/01/25 22:53:57;;;;;;;6.40;3.80;;;;;;;0.41;89.84;99195.81;10453927;28;20187;-54
2021/01/25 22:58:57;;;;;;;5.03;3.53;;;;;;;0.36;91.71;99183.72;10451798;28;20226;-54
2021/01/25 23:03:58;;;;;;;6.10;3.90;;;;;;;0.34;91.85;99190.81;10453045;28;20168;-54